sensor_id;sensor_type;location;lat;lon;timestamp;temperature;humidity
25248;DHT22;13191;47.472;11.214;2024-02-15T00:00:17;6.00;99.90
25248;DHT22;13191;47.472;11.214;2024-02-15T00:02:43;6.00;99.90
25248;DHT22;13191;47.472;11.214;2024-02-15T00:05:12;5.80;99.90
25248;DHT22;13191;47.472;11.214;2024-02-15T00:07:39;5.80;99.90
25248;DHT22;13191;47.472;11.214;2024-02-15T00:10:05;5.90;99.90
25248;DHT22;13191;47.472;11.214;2024-02-15T00:12:31;5.90;99.90
25248;DHT22;13191;47.472;11.214;2024-02-15T00:14:57;5.90;99.90
25248;DHT22;13191;47.472;11.214;2024-02-15T00:17:24;5.80;99.90
25248;DHT22;13191;47.472;11.214;2024-02-15T00:19:50;5.80;99.90
25248;DHT22;13191;47.472;11.214;2024-02-15T00:22:15;5.90;99.90
25248;DHT22;13191;47.472;11.214;2024-02-15T00:24:41;5.90;99.90
25248;DHT22;13191;47.472;11.214;2024-02-15T00:27:08;5.90;99.90
25248;DHT22;13191;47.472;11.214;2024-02-15T00:29:33;5.90;99.90
25248;DHT22;13191;47.472;11.214;2024-02-15T00:32:00;5.90;99.90
25248;DHT22;13191;47.472;11.214;2024-02-15T00:34:26;5.90;99.90
25248;DHT22;13191;47.472;11.214;2024-02-15T00:36:52;5.90;99.90
25248;DHT22;13191;47.472;11.214;2024-02-15T00:39:17;6.00;99.90
25248;DHT22;13191;47.472;11.214;2024-02-15T00:41:46;6.00;99.90
25248;DHT22;13191;47.472;11.214;2024-02-15T00:44:12;6.00;99.90
25248;DHT22;13191;47.472;11.214;2024-02-15T00:46:38;6.00;99.90
25248;DHT22;13191;47.472;11.214;2024-02-15T00:49:04;6.00;99.90
25248;DHT22;13191;47.472;11.214;2024-02-15T00:51:32;6.00;99.90
25248;DHT22;13191;47.472;11.214;2024-02-15T00:53:59;6.00;99.90
25248;DHT22;13191;47.472;11.214;2024-02-15T00:56:25;6.00;99.90
25248;DHT22;13191;47.472;11.214;2024-02-15T00:58:51;6.00;99.90
25248;DHT22;13191;47.472;11.214;2024-02-15T01:01:17;5.80;99.90
25248;DHT22;13191;47.472;11.214;2024-02-15T01:03:42;5.90;99.90
25248;DHT22;13191;47.472;11.214;2024-02-15T01:06:08;5.90;99.90
25248;DHT22;13191;47.472;11.214;2024-02-15T01:08:34;6.00;99.90
25248;DHT22;13191;47.472;11.214;2024-02-15T01:10:59;6.00;99.90
25248;DHT22;13191;47.472;11.214;2024-02-15T01:13:25;6.00;99.90
25248;DHT22;13191;47.472;11.214;2024-02-15T01:15:51;6.00;99.90
25248;DHT22;13191;47.472;11.214;2024-02-15T01:18:17;6.00;99.90
25248;DHT22;13191;47.472;11.214;2024-02-15T01:20:42;6.00;99.90
25248;DHT22;13191;47.472;11.214;2024-02-15T01:23:08;6.00;99.90
25248;DHT22;13191;47.472;11.214;2024-02-15T01:25:33;6.00;99.90
25248;DHT22;13191;47.472;11.214;2024-02-15T01:27:59;6.00;99.90
25248;DHT22;13191;47.472;11.214;2024-02-15T01:30:27;6.00;99.90
25248;DHT22;13191;47.472;11.214;2024-02-15T01:32:55;6.00;99.90
25248;DHT22;13191;47.472;11.214;2024-02-15T01:35:20;6.00;99.90
25248;DHT22;13191;47.472;11.214;2024-02-15T01:37:46;6.00;99.90
25248;DHT22;13191;47.472;11.214;2024-02-15T01:40:12;6.00;99.90
25248;DHT22;13191;47.472;11.214;2024-02-15T01:42:40;6.00;99.90
25248;DHT22;13191;47.472;11.214;2024-02-15T01:45:06;6.00;99.90
25248;DHT22;13191;47.472;11.214;2024-02-15T01:47:31;6.10;99.90
25248;DHT22;13191;47.472;11.214;2024-02-15T01:49:57;6.10;99.90
25248;DHT22;13191;47.472;11.214;2024-02-15T01:52:23;6.10;99.90
25248;DHT22;13191;47.472;11.214;2024-02-15T01:54:51;6.10;99.90
25248;DHT22;13191;47.472;11.214;2024-02-15T01:57:18;6.10;99.90
25248;DHT22;13191;47.472;11.214;2024-02-15T01:59:46;6.00;99.90
25248;DHT22;13191;47.472;11.214;2024-02-15T02:02:13;6.10;99.90
25248;DHT22;13191;47.472;11.214;2024-02-15T02:04:40;6.10;99.90
25248;DHT22;13191;47.472;11.214;2024-02-15T02:07:07;6.00;99.90
25248;DHT22;13191;47.472;11.214;2024-02-15T02:09:32;6.00;99.90
25248;DHT22;13191;47.472;11.214;2024-02-15T02:11:58;6.00;99.90
25248;DHT22;13191;47.472;11.214;2024-02-15T02:14:25;6.00;99.90
25248;DHT22;13191;47.472;11.214;2024-02-15T02:16:50;6.00;99.90
25248;DHT22;13191;47.472;11.214;2024-02-15T02:19:17;6.00;99.90
25248;DHT22;13191;47.472;11.214;2024-02-15T02:21:43;6.00;99.90
25248;DHT22;13191;47.472;11.214;2024-02-15T02:24:13;6.00;99.90
25248;DHT22;13191;47.472;11.214;2024-02-15T02:26:40;6.00;99.90
25248;DHT22;13191;47.472;11.214;2024-02-15T02:29:05;6.00;99.90
25248;DHT22;13191;47.472;11.214;2024-02-15T02:31:35;6.00;99.90
25248;DHT22;13191;47.472;11.214;2024-02-15T02:34:00;5.90;99.90
25248;DHT22;13191;47.472;11.214;2024-02-15T02:36:26;5.90;99.90
25248;DHT22;13191;47.472;11.214;2024-02-15T02:38:53;6.00;99.90
25248;DHT22;13191;47.472;11.214;2024-02-15T02:41:18;5.80;99.90
25248;DHT22;13191;47.472;11.214;2024-02-15T02:43:48;5.90;99.90
25248;DHT22;13191;47.472;11.214;2024-02-15T02:46:14;5.80;99.90
25248;DHT22;13191;47.472;11.214;2024-02-15T02:48:39;5.70;99.90
25248;DHT22;13191;47.472;11.214;2024-02-15T02:51:06;5.80;99.90
25248;DHT22;13191;47.472;11.214;2024-02-15T02:53:32;5.70;99.90
25248;DHT22;13191;47.472;11.214;2024-02-15T02:55:57;5.80;99.90
25248;DHT22;13191;47.472;11.214;2024-02-15T02:58:23;5.80;99.90
25248;DHT22;13191;47.472;11.214;2024-02-15T03:00:49;5.80;99.90
25248;DHT22;13191;47.472;11.214;2024-02-15T03:03:15;5.70;99.90
25248;DHT22;13191;47.472;11.214;2024-02-15T03:05:41;5.70;99.90
25248;DHT22;13191;47.472;11.214;2024-02-15T03:08:12;5.70;99.90
25248;DHT22;13191;47.472;11.214;2024-02-15T03:10:42;5.70;99.90
25248;DHT22;13191;47.472;11.214;2024-02-15T03:13:08;5.70;99.90
25248;DHT22;13191;47.472;11.214;2024-02-15T03:15:35;5.70;99.90
25248;DHT22;13191;47.472;11.214;2024-02-15T03:18:01;5.80;99.90
25248;DHT22;13191;47.472;11.214;2024-02-15T03:20:38;5.70;99.90
25248;DHT22;13191;47.472;11.214;2024-02-15T03:23:03;5.70;99.90
25248;DHT22;13191;47.472;11.214;2024-02-15T03:25:29;5.60;99.90
25248;DHT22;13191;47.472;11.214;2024-02-15T03:27:59;5.60;99.90
25248;DHT22;13191;47.472;11.214;2024-02-15T03:30:30;5.60;99.90
25248;DHT22;13191;47.472;11.214;2024-02-15T03:32:56;5.60;99.90
25248;DHT22;13191;47.472;11.214;2024-02-15T03:35:24;5.50;99.90
25248;DHT22;13191;47.472;11.214;2024-02-15T03:37:50;5.50;99.90
25248;DHT22;13191;47.472;11.214;2024-02-15T03:40:16;5.50;99.90
25248;DHT22;13191;47.472;11.214;2024-02-15T03:42:42;5.50;99.90
25248;DHT22;13191;47.472;11.214;2024-02-15T03:45:07;5.50;99.90
25248;DHT22;13191;47.472;11.214;2024-02-15T03:47:34;5.50;99.90
25248;DHT22;13191;47.472;11.214;2024-02-15T03:50:01;5.40;99.90
25248;DHT22;13191;47.472;11.214;2024-02-15T03:52:27;5.40;99.90
25248;DHT22;13191;47.472;11.214;2024-02-15T03:54:52;5.30;99.90
25248;DHT22;13191;47.472;11.214;2024-02-15T03:57:19;5.30;99.90
25248;DHT22;13191;47.472;11.214;2024-02-15T03:59:46;5.20;99.90
25248;DHT22;13191;47.472;11.214;2024-02-15T04:02:16;5.10;99.90
25248;DHT22;13191;47.472;11.214;2024-02-15T04:04:41;5.10;99.90
25248;DHT22;13191;47.472;11.214;2024-02-15T04:07:08;5.10;99.90
25248;DHT22;13191;47.472;11.214;2024-02-15T04:09:35;5.10;99.90
25248;DHT22;13191;47.472;11.214;2024-02-15T04:12:01;5.10;99.90
25248;DHT22;13191;47.472;11.214;2024-02-15T04:14:27;5.10;99.90
25248;DHT22;13191;47.472;11.214;2024-02-15T04:16:53;5.00;99.90
25248;DHT22;13191;47.472;11.214;2024-02-15T04:19:19;5.00;99.90
25248;DHT22;13191;47.472;11.214;2024-02-15T04:21:45;5.00;99.90
25248;DHT22;13191;47.472;11.214;2024-02-15T04:24:12;4.80;99.90
25248;DHT22;13191;47.472;11.214;2024-02-15T04:26:38;4.80;99.90
25248;DHT22;13191;47.472;11.214;2024-02-15T04:29:04;4.80;99.90
25248;DHT22;13191;47.472;11.214;2024-02-15T04:31:29;4.80;99.90
25248;DHT22;13191;47.472;11.214;2024-02-15T04:33:55;4.80;99.90
25248;DHT22;13191;47.472;11.214;2024-02-15T04:36:21;4.80;99.90
25248;DHT22;13191;47.472;11.214;2024-02-15T04:38:51;4.80;99.90
25248;DHT22;13191;47.472;11.214;2024-02-15T04:41:18;4.70;99.90
25248;DHT22;13191;47.472;11.214;2024-02-15T04:43:46;4.70;99.90
25248;DHT22;13191;47.472;11.214;2024-02-15T04:46:12;4.60;99.90
25248;DHT22;13191;47.472;11.214;2024-02-15T04:48:39;4.60;99.90
25248;DHT22;13191;47.472;11.214;2024-02-15T04:51:07;4.60;99.90
25248;DHT22;13191;47.472;11.214;2024-02-15T04:53:33;4.40;99.90
25248;DHT22;13191;47.472;11.214;2024-02-15T04:55:58;4.50;99.90
25248;DHT22;13191;47.472;11.214;2024-02-15T04:58:26;4.50;99.90
25248;DHT22;13191;47.472;11.214;2024-02-15T05:00:54;4.50;99.90
25248;DHT22;13191;47.472;11.214;2024-02-15T05:03:24;4.50;99.90
25248;DHT22;13191;47.472;11.214;2024-02-15T05:05:49;4.40;99.90
25248;DHT22;13191;47.472;11.214;2024-02-15T05:08:15;4.40;99.90
25248;DHT22;13191;47.472;11.214;2024-02-15T05:10:41;4.50;99.90
25248;DHT22;13191;47.472;11.214;2024-02-15T05:13:06;4.50;99.90
25248;DHT22;13191;47.472;11.214;2024-02-15T05:15:33;4.50;99.90
25248;DHT22;13191;47.472;11.214;2024-02-15T05:17:59;4.50;99.90
25248;DHT22;13191;47.472;11.214;2024-02-15T05:20:26;4.50;99.90
25248;DHT22;13191;47.472;11.214;2024-02-15T05:22:52;4.50;99.90
25248;DHT22;13191;47.472;11.214;2024-02-15T05:25:19;4.50;99.90
25248;DHT22;13191;47.472;11.214;2024-02-15T05:27:48;4.10;99.90
25248;DHT22;13191;47.472;11.214;2024-02-15T05:30:14;4.30;99.90
25248;DHT22;13191;47.472;11.214;2024-02-15T05:32:40;4.30;99.90
25248;DHT22;13191;47.472;11.214;2024-02-15T05:35:09;4.20;99.90
25248;DHT22;13191;47.472;11.214;2024-02-15T05:37:38;4.20;99.90
25248;DHT22;13191;47.472;11.214;2024-02-15T05:40:05;4.30;99.90
25248;DHT22;13191;47.472;11.214;2024-02-15T05:42:30;4.30;99.90
25248;DHT22;13191;47.472;11.214;2024-02-15T05:45:14;4.30;99.90
25248;DHT22;13191;47.472;11.214;2024-02-15T05:47:40;4.30;99.90
25248;DHT22;13191;47.472;11.214;2024-02-15T05:50:06;4.00;99.90
25248;DHT22;13191;47.472;11.214;2024-02-15T05:52:32;4.20;99.90
25248;DHT22;13191;47.472;11.214;2024-02-15T05:54:57;4.20;99.90
25248;DHT22;13191;47.472;11.214;2024-02-15T05:57:23;4.30;99.90
25248;DHT22;13191;47.472;11.214;2024-02-15T05:59:48;4.30;99.90
25248;DHT22;13191;47.472;11.214;2024-02-15T06:02:14;4.20;99.90
25248;DHT22;13191;47.472;11.214;2024-02-15T06:04:41;4.10;99.90
25248;DHT22;13191;47.472;11.214;2024-02-15T06:07:06;3.90;99.90
25248;DHT22;13191;47.472;11.214;2024-02-15T06:09:35;3.90;99.90
25248;DHT22;13191;47.472;11.214;2024-02-15T06:12:02;4.00;99.90
25248;DHT22;13191;47.472;11.214;2024-02-15T06:14:28;4.00;99.90
25248;DHT22;13191;47.472;11.214;2024-02-15T06:16:53;4.10;99.90
25248;DHT22;13191;47.472;11.214;2024-02-15T06:19:20;4.10;99.90
25248;DHT22;13191;47.472;11.214;2024-02-15T06:21:47;4.10;99.90
25248;DHT22;13191;47.472;11.214;2024-02-15T06:24:12;3.90;99.90
25248;DHT22;13191;47.472;11.214;2024-02-15T06:26:39;3.70;99.90
25248;DHT22;13191;47.472;11.214;2024-02-15T06:29:04;3.80;99.90
25248;DHT22;13191;47.472;11.214;2024-02-15T06:31:48;3.90;99.90
25248;DHT22;13191;47.472;11.214;2024-02-15T06:34:33;3.80;99.90
25248;DHT22;13191;47.472;11.214;2024-02-15T06:37:36;3.90;99.90
25248;DHT22;13191;47.472;11.214;2024-02-15T06:40:20;3.90;99.90
25248;DHT22;13191;47.472;11.214;2024-02-15T06:42:46;3.40;99.90
25248;DHT22;13191;47.472;11.214;2024-02-15T06:45:12;3.20;99.90
25248;DHT22;13191;47.472;11.214;2024-02-15T06:47:41;3.30;99.90
25248;DHT22;13191;47.472;11.214;2024-02-15T06:50:08;3.40;99.90
25248;DHT22;13191;47.472;11.214;2024-02-15T06:52:34;3.30;99.90
25248;DHT22;13191;47.472;11.214;2024-02-15T06:55:00;3.20;99.90
25248;DHT22;13191;47.472;11.214;2024-02-15T06:57:25;3.30;99.90
25248;DHT22;13191;47.472;11.214;2024-02-15T06:59:51;3.40;99.90
25248;DHT22;13191;47.472;11.214;2024-02-15T07:02:17;3.30;99.90
25248;DHT22;13191;47.472;11.214;2024-02-15T07:04:44;3.00;99.90
25248;DHT22;13191;47.472;11.214;2024-02-15T07:07:10;3.00;99.90
25248;DHT22;13191;47.472;11.214;2024-02-15T07:09:37;3.10;99.90
25248;DHT22;13191;47.472;11.214;2024-02-15T07:12:03;3.20;99.90
25248;DHT22;13191;47.472;11.214;2024-02-15T07:14:29;3.20;99.90
25248;DHT22;13191;47.472;11.214;2024-02-15T07:16:55;3.20;99.90
25248;DHT22;13191;47.472;11.214;2024-02-15T07:19:23;3.10;99.90
25248;DHT22;13191;47.472;11.214;2024-02-15T07:21:49;2.90;99.90
25248;DHT22;13191;47.472;11.214;2024-02-15T07:24:14;3.10;99.90
25248;DHT22;13191;47.472;11.214;2024-02-15T07:26:40;3.20;99.90
25248;DHT22;13191;47.472;11.214;2024-02-15T07:29:06;3.20;99.90
25248;DHT22;13191;47.472;11.214;2024-02-15T07:31:33;3.30;99.90
25248;DHT22;13191;47.472;11.214;2024-02-15T07:33:59;3.20;99.90
25248;DHT22;13191;47.472;11.214;2024-02-15T07:36:24;3.10;99.90
25248;DHT22;13191;47.472;11.214;2024-02-15T07:38:51;2.90;99.90
25248;DHT22;13191;47.472;11.214;2024-02-15T07:41:21;3.00;99.90
25248;DHT22;13191;47.472;11.214;2024-02-15T07:43:48;3.20;99.90
25248;DHT22;13191;47.472;11.214;2024-02-15T07:46:14;3.30;99.90
25248;DHT22;13191;47.472;11.214;2024-02-15T07:48:42;3.30;99.90
25248;DHT22;13191;47.472;11.214;2024-02-15T07:51:15;3.40;99.90
25248;DHT22;13191;47.472;11.214;2024-02-15T07:53:41;3.40;99.90
25248;DHT22;13191;47.472;11.214;2024-02-15T07:56:08;3.40;99.90
25248;DHT22;13191;47.472;11.214;2024-02-15T07:58:38;3.40;99.90
25248;DHT22;13191;47.472;11.214;2024-02-15T08:01:04;3.50;99.90
25248;DHT22;13191;47.472;11.214;2024-02-15T08:03:30;3.60;99.90
25248;DHT22;13191;47.472;11.214;2024-02-15T08:05:56;3.70;99.90
25248;DHT22;13191;47.472;11.214;2024-02-15T08:08:21;3.80;99.90
25248;DHT22;13191;47.472;11.214;2024-02-15T08:10:47;3.90;99.90
25248;DHT22;13191;47.472;11.214;2024-02-15T08:13:16;4.00;99.90
25248;DHT22;13191;47.472;11.214;2024-02-15T08:15:43;4.00;99.90
25248;DHT22;13191;47.472;11.214;2024-02-15T08:18:10;4.10;99.90
25248;DHT22;13191;47.472;11.214;2024-02-15T08:20:38;4.20;99.90
25248;DHT22;13191;47.472;11.214;2024-02-15T08:23:05;4.30;99.90
25248;DHT22;13191;47.472;11.214;2024-02-15T08:25:31;4.40;99.90
25248;DHT22;13191;47.472;11.214;2024-02-15T08:27:57;4.50;99.90
25248;DHT22;13191;47.472;11.214;2024-02-15T08:30:23;4.70;99.90
25248;DHT22;13191;47.472;11.214;2024-02-15T08:32:54;4.80;99.90
25248;DHT22;13191;47.472;11.214;2024-02-15T08:35:19;4.90;99.90
25248;DHT22;13191;47.472;11.214;2024-02-15T08:37:45;5.00;99.90
25248;DHT22;13191;47.472;11.214;2024-02-15T08:40:12;5.10;99.90
25248;DHT22;13191;47.472;11.214;2024-02-15T08:42:41;5.30;99.90
25248;DHT22;13191;47.472;11.214;2024-02-15T08:45:08;5.30;99.90
25248;DHT22;13191;47.472;11.214;2024-02-15T08:47:38;5.40;99.90
25248;DHT22;13191;47.472;11.214;2024-02-15T08:50:04;5.60;99.90
25248;DHT22;13191;47.472;11.214;2024-02-15T08:52:30;5.70;99.90
25248;DHT22;13191;47.472;11.214;2024-02-15T08:54:56;5.80;99.90
25248;DHT22;13191;47.472;11.214;2024-02-15T08:57:24;6.00;99.90
25248;DHT22;13191;47.472;11.214;2024-02-15T08:59:50;6.20;99.90
25248;DHT22;13191;47.472;11.214;2024-02-15T09:02:17;6.30;99.90
25248;DHT22;13191;47.472;11.214;2024-02-15T09:04:43;6.40;99.90
25248;DHT22;13191;47.472;11.214;2024-02-15T09:07:08;6.40;99.90
25248;DHT22;13191;47.472;11.214;2024-02-15T09:09:35;6.50;99.90
25248;DHT22;13191;47.472;11.214;2024-02-15T09:12:02;6.60;99.90
25248;DHT22;13191;47.472;11.214;2024-02-15T09:14:32;6.70;99.90
25248;DHT22;13191;47.472;11.214;2024-02-15T09:16:59;6.70;99.90
25248;DHT22;13191;47.472;11.214;2024-02-15T09:19:24;6.80;99.90
25248;DHT22;13191;47.472;11.214;2024-02-15T09:21:50;6.90;99.90
25248;DHT22;13191;47.472;11.214;2024-02-15T09:24:15;7.00;99.90
25248;DHT22;13191;47.472;11.214;2024-02-15T09:26:42;7.00;99.90
25248;DHT22;13191;47.472;11.214;2024-02-15T09:29:08;7.10;99.90
25248;DHT22;13191;47.472;11.214;2024-02-15T09:31:33;7.20;99.90
25248;DHT22;13191;47.472;11.214;2024-02-15T09:34:01;7.30;99.90
25248;DHT22;13191;47.472;11.214;2024-02-15T09:36:26;7.40;99.90
25248;DHT22;13191;47.472;11.214;2024-02-15T09:38:53;7.50;99.90
25248;DHT22;13191;47.472;11.214;2024-02-15T09:41:19;7.50;99.90
25248;DHT22;13191;47.472;11.214;2024-02-15T09:43:45;7.60;99.90
25248;DHT22;13191;47.472;11.214;2024-02-15T09:46:10;7.70;99.90
25248;DHT22;13191;47.472;11.214;2024-02-15T09:48:39;7.80;99.90
25248;DHT22;13191;47.472;11.214;2024-02-15T09:51:09;8.00;99.90
25248;DHT22;13191;47.472;11.214;2024-02-15T09:53:37;8.10;99.90
25248;DHT22;13191;47.472;11.214;2024-02-15T09:56:04;8.20;99.90
25248;DHT22;13191;47.472;11.214;2024-02-15T09:58:31;8.30;99.90
25248;DHT22;13191;47.472;11.214;2024-02-15T10:01:04;8.40;99.90
25248;DHT22;13191;47.472;11.214;2024-02-15T10:03:37;8.50;99.90
25248;DHT22;13191;47.472;11.214;2024-02-15T10:06:05;8.70;99.90
25248;DHT22;13191;47.472;11.214;2024-02-15T10:08:31;8.70;99.90
25248;DHT22;13191;47.472;11.214;2024-02-15T10:11:09;8.80;99.90
25248;DHT22;13191;47.472;11.214;2024-02-15T10:13:35;8.90;99.90
25248;DHT22;13191;47.472;11.214;2024-02-15T10:16:19;9.00;99.90
25248;DHT22;13191;47.472;11.214;2024-02-15T10:18:50;9.10;99.90
25248;DHT22;13191;47.472;11.214;2024-02-15T10:24:08;9.30;99.90
25248;DHT22;13191;47.472;11.214;2024-02-15T10:26:35;9.30;99.90
25248;DHT22;13191;47.472;11.214;2024-02-15T10:29:11;9.40;99.90
25248;DHT22;13191;47.472;11.214;2024-02-15T10:31:40;9.50;99.90
25248;DHT22;13191;47.472;11.214;2024-02-15T10:34:17;9.70;99.90
25248;DHT22;13191;47.472;11.214;2024-02-15T10:36:44;9.70;99.90
25248;DHT22;13191;47.472;11.214;2024-02-15T10:39:20;9.80;99.90
25248;DHT22;13191;47.472;11.214;2024-02-15T10:41:50;9.80;99.90
25248;DHT22;13191;47.472;11.214;2024-02-15T10:44:23;9.90;99.90
25248;DHT22;13191;47.472;11.214;2024-02-15T10:46:50;10.00;99.90
25248;DHT22;13191;47.472;11.214;2024-02-15T10:49:20;10.10;99.90
25248;DHT22;13191;47.472;11.214;2024-02-15T10:51:59;10.10;99.90
25248;DHT22;13191;47.472;11.214;2024-02-15T10:54:43;10.20;99.90
25248;DHT22;13191;47.472;11.214;2024-02-15T10:57:12;10.30;99.90
25248;DHT22;13191;47.472;11.214;2024-02-15T10:59:48;10.40;99.90
25248;DHT22;13191;47.472;11.214;2024-02-15T11:02:29;10.50;99.90
25248;DHT22;13191;47.472;11.214;2024-02-15T11:05:01;10.60;99.90
25248;DHT22;13191;47.472;11.214;2024-02-15T11:07:29;10.70;99.90
25248;DHT22;13191;47.472;11.214;2024-02-15T11:09:56;10.80;99.90
25248;DHT22;13191;47.472;11.214;2024-02-15T11:12:23;10.90;99.90
25248;DHT22;13191;47.472;11.214;2024-02-15T11:14:49;11.00;99.90
25248;DHT22;13191;47.472;11.214;2024-02-15T11:17:55;11.20;99.90
25248;DHT22;13191;47.472;11.214;2024-02-15T11:23:01;11.40;99.90
25248;DHT22;13191;47.472;11.214;2024-02-15T11:25:36;11.50;99.90
25248;DHT22;13191;47.472;11.214;2024-02-15T11:28:35;11.60;99.90
25248;DHT22;13191;47.472;11.214;2024-02-15T11:31:02;11.70;99.90
25248;DHT22;13191;47.472;11.214;2024-02-15T11:33:32;11.80;99.90
25248;DHT22;13191;47.472;11.214;2024-02-15T11:38:37;11.90;99.90
25248;DHT22;13191;47.472;11.214;2024-02-15T11:41:06;12.10;99.90
25248;DHT22;13191;47.472;11.214;2024-02-15T11:46:20;12.10;99.90
25248;DHT22;13191;47.472;11.214;2024-02-15T11:48:47;12.20;99.90
25248;DHT22;13191;47.472;11.214;2024-02-15T11:51:30;12.20;99.90
25248;DHT22;13191;47.472;11.214;2024-02-15T11:54:09;12.40;99.90
25248;DHT22;13191;47.472;11.214;2024-02-15T11:59:12;12.50;99.90
25248;DHT22;13191;47.472;11.214;2024-02-15T12:01:44;12.60;99.90
25248;DHT22;13191;47.472;11.214;2024-02-15T12:04:30;12.70;99.90
25248;DHT22;13191;47.472;11.214;2024-02-15T12:07:15;12.70;99.90
25248;DHT22;13191;47.472;11.214;2024-02-15T12:09:59;12.90;99.90
25248;DHT22;13191;47.472;11.214;2024-02-15T12:12:53;12.90;99.90
25248;DHT22;13191;47.472;11.214;2024-02-15T12:15:38;13.00;99.90
25248;DHT22;13191;47.472;11.214;2024-02-15T12:18:22;13.10;99.90
25248;DHT22;13191;47.472;11.214;2024-02-15T12:21:07;13.20;99.90
25248;DHT22;13191;47.472;11.214;2024-02-15T12:23:37;13.30;99.90
25248;DHT22;13191;47.472;11.214;2024-02-15T12:26:03;13.30;99.90
25248;DHT22;13191;47.472;11.214;2024-02-15T12:28:29;13.50;99.90
25248;DHT22;13191;47.472;11.214;2024-02-15T12:30:55;13.50;99.90
25248;DHT22;13191;47.472;11.214;2024-02-15T12:33:24;13.60;99.90
25248;DHT22;13191;47.472;11.214;2024-02-15T12:35:49;13.60;99.90
25248;DHT22;13191;47.472;11.214;2024-02-15T12:38:18;13.60;99.90
25248;DHT22;13191;47.472;11.214;2024-02-15T12:40:43;13.70;99.90
25248;DHT22;13191;47.472;11.214;2024-02-15T12:43:10;13.60;99.90
25248;DHT22;13191;47.472;11.214;2024-02-15T12:45:36;13.70;99.90
25248;DHT22;13191;47.472;11.214;2024-02-15T12:48:06;13.70;99.90
25248;DHT22;13191;47.472;11.214;2024-02-15T12:50:33;13.80;99.90
25248;DHT22;13191;47.472;11.214;2024-02-15T12:52:59;13.80;99.90
25248;DHT22;13191;47.472;11.214;2024-02-15T12:55:32;13.90;99.90
25248;DHT22;13191;47.472;11.214;2024-02-15T12:58:03;13.90;99.90
25248;DHT22;13191;47.472;11.214;2024-02-15T13:00:31;13.90;99.90
25248;DHT22;13191;47.472;11.214;2024-02-15T13:03:03;14.00;99.90
25248;DHT22;13191;47.472;11.214;2024-02-15T13:05:29;14.10;99.90
25248;DHT22;13191;47.472;11.214;2024-02-15T13:07:55;14.10;99.90
25248;DHT22;13191;47.472;11.214;2024-02-15T13:10:22;14.20;99.90
25248;DHT22;13191;47.472;11.214;2024-02-15T13:12:48;14.20;99.90
25248;DHT22;13191;47.472;11.214;2024-02-15T13:15:15;14.30;99.90
25248;DHT22;13191;47.472;11.214;2024-02-15T13:17:49;14.30;99.90
25248;DHT22;13191;47.472;11.214;2024-02-15T13:20:17;14.30;99.90
25248;DHT22;13191;47.472;11.214;2024-02-15T13:22:46;14.30;99.90
25248;DHT22;13191;47.472;11.214;2024-02-15T13:25:15;14.30;99.90
25248;DHT22;13191;47.472;11.214;2024-02-15T13:27:46;14.40;99.90
25248;DHT22;13191;47.472;11.214;2024-02-15T13:30:12;14.40;99.90
25248;DHT22;13191;47.472;11.214;2024-02-15T13:32:39;14.40;99.90
25248;DHT22;13191;47.472;11.214;2024-02-15T13:35:07;14.50;99.90
25248;DHT22;13191;47.472;11.214;2024-02-15T13:37:47;14.50;99.90
25248;DHT22;13191;47.472;11.214;2024-02-15T13:40:14;14.50;99.90
25248;DHT22;13191;47.472;11.214;2024-02-15T13:42:46;14.50;99.90
25248;DHT22;13191;47.472;11.214;2024-02-15T13:45:41;14.50;99.90
25248;DHT22;13191;47.472;11.214;2024-02-15T13:48:07;14.60;99.90
25248;DHT22;13191;47.472;11.214;2024-02-15T13:50:34;14.60;99.90
25248;DHT22;13191;47.472;11.214;2024-02-15T13:53:00;14.60;99.90
25248;DHT22;13191;47.472;11.214;2024-02-15T13:55:27;14.70;99.90
25248;DHT22;13191;47.472;11.214;2024-02-15T13:57:53;14.80;99.90
25248;DHT22;13191;47.472;11.214;2024-02-15T14:00:21;14.90;99.90
25248;DHT22;13191;47.472;11.214;2024-02-15T14:02:51;14.90;99.90
25248;DHT22;13191;47.472;11.214;2024-02-15T14:05:17;15.00;99.90
25248;DHT22;13191;47.472;11.214;2024-02-15T14:07:50;15.10;99.90
25248;DHT22;13191;47.472;11.214;2024-02-15T14:10:16;15.10;99.90
25248;DHT22;13191;47.472;11.214;2024-02-15T14:12:49;15.10;99.90
25248;DHT22;13191;47.472;11.214;2024-02-15T14:15:17;15.30;99.90
25248;DHT22;13191;47.472;11.214;2024-02-15T14:17:44;15.40;99.90
25248;DHT22;13191;47.472;11.214;2024-02-15T14:20:10;15.40;99.90
25248;DHT22;13191;47.472;11.214;2024-02-15T14:22:49;15.60;99.90
25248;DHT22;13191;47.472;11.214;2024-02-15T14:25:16;15.70;99.90
25248;DHT22;13191;47.472;11.214;2024-02-15T14:27:41;15.80;99.90
25248;DHT22;13191;47.472;11.214;2024-02-15T14:30:08;16.00;99.90
25248;DHT22;13191;47.472;11.214;2024-02-15T14:32:52;16.00;99.90
25248;DHT22;13191;47.472;11.214;2024-02-15T14:35:31;16.10;99.90
25248;DHT22;13191;47.472;11.214;2024-02-15T14:38:01;16.30;99.90
25248;DHT22;13191;47.472;11.214;2024-02-15T14:40:31;16.40;99.90
25248;DHT22;13191;47.472;11.214;2024-02-15T14:42:56;16.40;99.90
25248;DHT22;13191;47.472;11.214;2024-02-15T14:45:22;16.50;99.90
25248;DHT22;13191;47.472;11.214;2024-02-15T14:47:48;16.50;99.90
25248;DHT22;13191;47.472;11.214;2024-02-15T14:50:13;16.60;99.90
25248;DHT22;13191;47.472;11.214;2024-02-15T14:52:39;16.70;99.90
25248;DHT22;13191;47.472;11.214;2024-02-15T14:55:06;16.80;99.90
25248;DHT22;13191;47.472;11.214;2024-02-15T14:57:33;16.80;99.90
25248;DHT22;13191;47.472;11.214;2024-02-15T14:59:59;16.80;99.90
25248;DHT22;13191;47.472;11.214;2024-02-15T15:02:25;16.90;99.90
25248;DHT22;13191;47.472;11.214;2024-02-15T15:04:51;16.90;99.90
25248;DHT22;13191;47.472;11.214;2024-02-15T15:07:35;16.90;99.90
25248;DHT22;13191;47.472;11.214;2024-02-15T15:10:19;16.90;99.90
25248;DHT22;13191;47.472;11.214;2024-02-15T15:13:03;16.90;99.90
25248;DHT22;13191;47.472;11.214;2024-02-15T15:15:29;16.70;99.90
25248;DHT22;13191;47.472;11.214;2024-02-15T15:17:55;16.40;99.90
25248;DHT22;13191;47.472;11.214;2024-02-15T15:20:21;16.40;99.90
25248;DHT22;13191;47.472;11.214;2024-02-15T15:22:47;16.00;99.90
25248;DHT22;13191;47.472;11.214;2024-02-15T15:25:12;16.00;99.90
25248;DHT22;13191;47.472;11.214;2024-02-15T15:27:38;16.00;99.90
25248;DHT22;13191;47.472;11.214;2024-02-15T15:30:05;16.00;99.90
25248;DHT22;13191;47.472;11.214;2024-02-15T15:32:31;16.00;99.90
25248;DHT22;13191;47.472;11.214;2024-02-15T15:34:56;15.90;99.90
25248;DHT22;13191;47.472;11.214;2024-02-15T15:37:22;15.80;99.90
25248;DHT22;13191;47.472;11.214;2024-02-15T15:39:48;15.60;99.90
25248;DHT22;13191;47.472;11.214;2024-02-15T15:42:15;15.00;99.90
25248;DHT22;13191;47.472;11.214;2024-02-15T15:44:41;14.90;99.90
25248;DHT22;13191;47.472;11.214;2024-02-15T15:47:07;15.00;99.90